createdAt,value
2022-08-20T00:02:13.051Z,68.07
2022-08-20T00:05:16.251Z,78.26
2022-08-20T00:08:21.047Z,76.60
2022-08-20T00:11:26.112Z,74.59
2022-08-20T00:14:31.886Z,73.21
2022-08-20T00:17:38.250Z,76.31
2022-08-20T00:20:42.674Z,76.84
2022-08-20T00:23:48.538Z,78.37
2022-08-20T00:26:52.403Z,77.01
2022-08-20T00:29:57.412Z,75.31
2022-08-20T00:33:01.645Z,78.40
2022-08-20T00:36:06.801Z,77.58
2022-08-20T00:39:10.985Z,77.67
2022-08-20T00:42:15.032Z,78.51
2022-08-20T00:45:19.653Z,79.32
2022-08-20T00:48:22.500Z,76.77
2022-08-20T00:51:27.972Z,75.36
2022-08-20T00:54:36.116Z,77.39
2022-08-20T00:57:53.338Z,78.94
2022-08-20T01:01:04.816Z,78.37
2022-08-20T01:04:07.606Z,77.67
2022-08-20T01:07:10.664Z,75.25
2022-08-20T01:10:19.335Z,74.80
2022-08-20T01:13:24.424Z,78.21
2022-08-20T01:16:29.197Z,75.47
2022-08-20T01:19:34.374Z,75.47
2022-08-20T01:23:00.756Z,76.10
2022-08-20T01:26:09.523Z,74.20
2022-08-20T01:29:14.691Z,77.56
2022-08-20T01:32:17.628Z,74.62
2022-08-20T01:35:21.425Z,77.29
2022-08-20T01:38:25.722Z,77.64
2022-08-20T01:41:49.054Z,77.40
2022-08-20T01:44:53.868Z,76.67
2022-08-20T01:47:57.838Z,77.19
2022-08-20T01:51:04.710Z,78.95
2022-08-20T01:54:07.927Z,76.49
2022-08-20T01:57:13.567Z,74.97
2022-08-20T02:00:20.183Z,76.34
2022-08-20T02:03:24.968Z,77.17
2022-08-20T02:06:28.646Z,78.40
2022-08-20T02:09:32.823Z,76.21
2022-08-20T02:12:35.897Z,78.55
2022-08-20T02:15:42.948Z,77.73
2022-08-20T02:18:45.998Z,77.91
2022-08-20T02:21:51.186Z,78.21
2022-08-20T02:24:54.107Z,75.90
2022-08-20T02:27:58.025Z,77.66
2022-08-20T02:31:03.528Z,78.94
2022-08-20T02:34:14.755Z,76.64
2022-08-20T02:37:25.992Z,75.89
2022-08-20T02:40:30.683Z,75.85
2022-08-20T02:43:34.175Z,75.70
2022-08-20T02:46:38.467Z,77.07
2022-08-20T02:49:41.239Z,73.30
2022-08-20T02:52:51.606Z,76.31
2022-08-20T02:55:55.051Z,75.97
2022-08-20T02:58:57.822Z,74.92
2022-08-20T03:02:02.655Z,74.51
2022-08-20T03:05:10.614Z,73.86
2022-08-20T03:08:14.483Z,75.97
2022-08-20T03:11:17.404Z,73.73
2022-08-20T03:14:20.427Z,71.59
2022-08-20T03:17:24.586Z,70.71
2022-08-20T03:20:27.990Z,69.35
2022-08-20T03:23:31.005Z,70.25
2022-08-20T03:26:33.849Z,69.81
2022-08-20T03:29:36.652Z,70.94
2022-08-20T03:32:52.999Z,67.29
2022-08-20T03:35:56.212Z,67.04
2022-08-20T03:39:00.609Z,65.63
2022-08-20T03:42:03.618Z,66.72
2022-08-20T03:45:07.023Z,67.07
2022-08-20T03:48:12.435Z,65.37
2022-08-20T03:51:15.408Z,66.55
2022-08-20T03:54:18.253Z,65.26
2022-08-20T03:57:21.224Z,65.25
2022-08-20T04:00:25.847Z,64.95
2022-08-20T04:03:30.204Z,64.47
2022-08-20T04:06:33.041Z,65.41
2022-08-20T04:09:35.864Z,63.32
2022-08-20T04:12:48.658Z,62.58
2022-08-20T04:15:56.384Z,63.54
2022-08-20T04:19:02.535Z,62.49
2022-08-20T04:22:05.859Z,62.65
2022-08-20T04:25:09.573Z,62.70
2022-08-20T04:28:25.551Z,60.73
2022-08-20T04:31:33.183Z,61.00
2022-08-20T04:34:37.529Z,59.16
2022-08-20T04:37:40.582Z,59.34
2022-08-20T04:40:57.892Z,59.11
2022-08-20T04:44:01.372Z,59.55
2022-08-20T04:47:04.191Z,60.14
2022-08-20T04:50:11.060Z,59.74
2022-08-20T04:53:14.931Z,59.02
2022-08-20T04:56:19.895Z,58.25
2022-08-20T04:59:22.689Z,57.30
2022-08-20T05:02:25.502Z,57.28
2022-08-20T05:05:30.952Z,52.84
2022-08-20T05:08:35.734Z,52.50
2022-08-20T05:11:38.539Z,54.28
2022-08-20T05:14:41.346Z,54.74
2022-08-20T05:17:44.431Z,54.12
2022-08-20T05:20:49.443Z,52.67
2022-08-20T05:23:52.235Z,53.38
2022-08-20T05:26:56.174Z,53.05
2022-08-20T05:30:01.568Z,53.32
2022-08-20T05:33:06.779Z,50.67
2022-08-20T05:36:11.000Z,51.29
2022-08-20T05:39:18.454Z,51.88
2022-08-20T05:42:21.290Z,51.67
2022-08-20T05:45:24.157Z,51.72
2022-08-20T05:48:27.042Z,51.74
2022-08-20T05:51:31.329Z,51.24
2022-08-20T05:54:34.510Z,51.65
2022-08-20T05:57:37.548Z,51.33
2022-08-20T06:00:41.357Z,48.60
2022-08-20T06:03:57.966Z,50.43
2022-08-20T06:07:05.688Z,50.57
2022-08-20T06:10:10.258Z,49.99
2022-08-20T06:13:14.023Z,50.68
2022-08-20T06:16:17.262Z,50.11
2022-08-20T06:19:25.145Z,52.95
2022-08-20T06:22:31.746Z,51.53
2022-08-20T06:25:37.952Z,50.34
2022-08-20T06:28:41.323Z,50.59
2022-08-20T06:31:44.133Z,48.05
2022-08-20T06:34:50.138Z,49.41
2022-08-20T06:37:57.643Z,50.05
2022-08-20T06:41:00.566Z,47.70
2022-08-20T06:44:03.409Z,48.99
2022-08-20T06:47:06.823Z,48.83
2022-08-20T06:50:10.824Z,48.06
2022-08-20T06:53:16.428Z,48.09
2022-08-20T06:56:19.251Z,47.53
2022-08-20T06:59:22.143Z,48.53
2022-08-20T07:02:29.239Z,49.06
2022-08-20T07:05:34.629Z,48.83
2022-08-20T07:08:38.815Z,47.78
2022-08-20T07:11:43.455Z,47.13
2022-08-20T07:14:46.269Z,48.47
2022-08-20T07:17:52.675Z,48.81
2022-08-20T07:20:57.637Z,48.01
2022-08-20T07:24:01.986Z,47.91
2022-08-20T07:27:04.986Z,46.43
2022-08-20T07:30:26.374Z,47.16
2022-08-20T07:33:30.036Z,47.22
2022-08-20T07:36:33.416Z,46.74
2022-08-20T07:39:37.678Z,46.47
2022-08-20T07:42:42.048Z,46.11
2022-08-20T07:45:48.505Z,47.40
2022-08-20T07:48:55.076Z,46.69
2022-08-20T07:51:58.223Z,46.69
2022-08-20T07:55:02.358Z,45.93
2022-08-20T07:58:08.927Z,47.41
2022-08-20T08:01:12.059Z,47.12
2022-08-20T08:04:16.326Z,46.49
2022-08-20T08:07:19.575Z,45.84
2022-08-20T08:10:24.410Z,46.30
2022-08-20T08:13:27.813Z,45.59
2022-08-20T08:16:32.717Z,45.34
2022-08-20T08:19:41.425Z,45.23
2022-08-20T08:22:44.339Z,46.10
2022-08-20T08:25:48.538Z,44.47
2022-08-20T08:29:00.458Z,45.21
2022-08-20T08:35:34.350Z,45.46
2022-08-20T08:38:40.679Z,44.72
2022-08-20T08:41:53.186Z,44.41
2022-08-20T08:44:56.184Z,43.69
2022-08-20T08:47:59.379Z,43.33
2022-08-20T08:51:12.416Z,43.22
2022-08-20T08:54:17.515Z,43.53
2022-08-20T08:57:27.310Z,42.74
2022-08-20T09:00:30.966Z,42.11
2022-08-20T09:03:43.583Z,41.78
2022-08-20T09:06:52.252Z,39.83
2022-08-20T09:09:56.536Z,37.58
2022-08-20T09:13:01.373Z,36.06
2022-08-20T09:16:10.322Z,34.00
2022-08-20T09:19:13.143Z,31.89
2022-08-20T09:22:18.128Z,31.90
2022-08-20T09:25:21.545Z,31.20
2022-08-20T09:28:25.722Z,30.74
2022-08-20T09:31:35.579Z,30.21
2022-08-20T09:34:41.289Z,29.92
2022-08-20T09:37:44.094Z,31.12
2022-08-20T09:40:48.786Z,32.01
2022-08-20T09:43:52.997Z,32.25
2022-08-20T09:46:55.838Z,33.53
2022-08-20T09:49:58.583Z,33.76
2022-08-20T09:53:02.615Z,36.51
2022-08-20T09:56:05.433Z,34.70
2022-08-20T09:59:09.594Z,34.62
2022-08-20T10:02:12.447Z,32.98
2022-08-20T10:05:16.401Z,32.29
2022-08-20T10:08:19.250Z,37.71
2022-08-20T10:11:24.287Z,37.58
2022-08-20T10:14:29.240Z,36.92
2022-08-20T10:17:32.642Z,35.90
2022-08-20T10:20:36.837Z,37.02
2022-08-20T10:23:39.697Z,35.58
2022-08-20T10:26:42.608Z,34.52
2022-08-20T10:29:47.091Z,33.72
2022-08-20T10:32:50.099Z,33.75
2022-08-20T10:35:55.698Z,35.59
2022-08-20T10:39:03.953Z,34.59
2022-08-20T10:42:07.116Z,35.93
2022-08-20T10:45:11.818Z,34.52
2022-08-20T10:48:19.479Z,34.64
2022-08-20T10:51:32.170Z,34.71
2022-08-20T10:54:35.739Z,34.93
2022-08-20T10:57:43.498Z,33.70
2022-08-20T11:00:48.055Z,34.84
2022-08-20T11:03:50.830Z,34.27
2022-08-20T11:06:58.083Z,34.38
2022-08-20T11:10:01.238Z,34.18
2022-08-20T11:13:04.712Z,34.14
2022-08-20T11:16:10.682Z,34.68
2022-08-20T11:19:13.863Z,35.32
2022-08-20T11:22:17.233Z,34.57
2022-08-20T11:25:20.616Z,35.16
2022-08-20T11:28:31.886Z,37.50
2022-08-20T11:31:36.587Z,37.74
2022-08-20T11:34:40.751Z,37.27
2022-08-20T11:37:44.138Z,37.11
2022-08-20T11:40:47.936Z,36.43
2022-08-20T11:44:10.390Z,35.78
2022-08-20T11:47:22.900Z,35.13
2022-08-20T11:50:28.467Z,35.15
2022-08-20T11:53:31.370Z,34.37
2022-08-20T11:56:37.492Z,36.95
2022-08-20T11:59:40.785Z,36.90
2022-08-20T12:02:45.249Z,39.09
2022-08-20T12:05:48.489Z,40.07
2022-08-20T12:08:52.735Z,41.85
2022-08-20T12:11:55.560Z,42.58
2022-08-20T12:14:58.363Z,43.00
2022-08-20T12:18:02.574Z,42.73
2022-08-20T12:21:07.722Z,43.36
2022-08-20T12:24:10.587Z,44.75
2022-08-20T12:27:16.427Z,45.00
2022-08-20T12:30:20.966Z,44.25
2022-08-20T12:33:29.193Z,45.73
2022-08-20T12:36:32.463Z,46.00
2022-08-20T12:39:40.925Z,46.60
2022-08-20T12:42:44.106Z,47.75
2022-08-20T12:45:46.911Z,46.15
2022-08-20T12:48:51.288Z,46.87
2022-08-20T12:51:54.083Z,46.90
2022-08-20T12:54:57.620Z,45.74
2022-08-20T12:58:01.917Z,45.29
2022-08-20T13:01:04.771Z,44.87
2022-08-20T13:04:09.434Z,44.95
2022-08-20T13:07:13.422Z,44.37
2022-08-20T13:10:17.341Z,42.65
2022-08-20T13:13:21.217Z,42.87
2022-08-20T13:16:26.566Z,41.23
2022-08-20T13:19:31.258Z,42.03
2022-08-20T13:22:34.058Z,41.03
2022-08-20T13:25:36.903Z,42.17
2022-08-20T13:28:39.802Z,43.43
2022-08-20T13:31:42.836Z,44.02
2022-08-20T13:34:50.398Z,44.01
2022-08-20T13:37:53.519Z,44.10
2022-08-20T13:40:56.579Z,43.64
2022-08-20T13:43:59.471Z,45.38
2022-08-20T13:47:02.355Z,44.09
2022-08-20T13:50:08.351Z,44.80
2022-08-20T13:53:11.163Z,44.41
2022-08-20T13:56:14.609Z,44.77
2022-08-20T13:59:21.224Z,43.79
2022-08-20T14:02:24.655Z,43.84
2022-08-20T14:05:30.840Z,43.21
2022-08-20T14:08:33.786Z,44.07
2022-08-20T14:11:36.666Z,44.22
2022-08-20T14:14:39.492Z,45.39
2022-08-20T14:17:43.451Z,43.64
2022-08-20T14:20:47.645Z,45.46
2022-08-20T14:23:50.820Z,44.09
2022-08-20T14:26:53.569Z,43.00
2022-08-20T14:29:56.400Z,44.41
2022-08-20T14:32:59.300Z,43.15
2022-08-20T14:36:03.583Z,43.20
2022-08-20T14:39:06.400Z,45.45
2022-08-20T14:42:09.308Z,43.77
2022-08-20T14:45:13.772Z,43.81
2022-08-20T14:48:18.060Z,42.66
2022-08-20T14:51:22.265Z,43.00
2022-08-20T14:54:25.133Z,42.26
2022-08-20T14:57:28.461Z,41.17
2022-08-20T15:00:34.376Z,42.43
2022-08-20T15:03:37.330Z,41.86
2022-08-20T15:06:42.323Z,42.17
2022-08-20T15:09:45.761Z,41.40
2022-08-20T15:12:48.580Z,41.91
2022-08-20T15:15:51.421Z,41.88
2022-08-20T15:18:56.512Z,41.92
2022-08-20T15:22:03.843Z,40.59
2022-08-20T15:25:07.225Z,41.79
2022-08-20T15:28:11.116Z,41.29
2022-08-20T15:31:14.370Z,41.07
2022-08-20T15:34:17.645Z,41.57
2022-08-20T15:37:23.341Z,40.23
2022-08-20T15:40:28.527Z,41.17
2022-08-20T15:43:32.774Z,40.93
2022-08-20T15:46:39.012Z,41.21
2022-08-20T15:49:42.897Z,41.30
2022-08-20T15:52:47.263Z,40.60
2022-08-20T15:55:55.015Z,40.82
2022-08-20T15:59:05.406Z,39.53
2022-08-20T16:02:12.525Z,40.02
2022-08-20T16:05:24.517Z,40.09
2022-08-20T16:08:35.853Z,39.92
2022-08-20T16:11:46.486Z,40.32
2022-08-20T16:14:52.077Z,41.02
2022-08-20T16:17:59.931Z,41.33
2022-08-20T16:21:05.177Z,40.79
2022-08-20T16:24:12.905Z,41.01
2022-08-20T16:27:25.281Z,41.55
2022-08-20T16:30:33.392Z,42.16
2022-08-20T16:33:38.490Z,40.87
2022-08-20T16:36:44.418Z,41.32
2022-08-20T16:39:52.149Z,43.77
2022-08-20T16:42:57.460Z,41.59
2022-08-20T16:46:02.965Z,42.29
2022-08-20T16:49:11.424Z,43.59
2022-08-20T16:52:14.255Z,42.05
2022-08-20T16:55:19.333Z,42.53
2022-08-20T16:58:23.046Z,41.39
2022-08-20T17:01:27.479Z,42.92
2022-08-20T17:04:30.580Z,42.09
2022-08-20T17:07:44.850Z,43.47
2022-08-20T17:10:59.854Z,42.59
2022-08-20T17:14:07.724Z,44.57
2022-08-20T17:17:19.163Z,43.63
2022-08-20T17:20:22.093Z,43.11
2022-08-20T17:23:25.029Z,43.54
2022-08-20T17:26:31.407Z,44.44
2022-08-20T17:29:35.384Z,45.16
2022-08-20T17:32:47.779Z,44.86
2022-08-20T17:36:02.067Z,44.89
2022-08-20T17:39:14.933Z,45.00
2022-08-20T17:42:21.377Z,45.24
2022-08-20T17:45:31.549Z,45.47
2022-08-20T17:48:37.123Z,47.04
2022-08-20T17:51:45.587Z,47.12
2022-08-20T17:54:49.490Z,47.71
2022-08-20T17:57:59.883Z,46.10
2022-08-20T18:01:02.652Z,45.92
2022-08-20T18:04:08.327Z,45.26
2022-08-20T18:07:15.388Z,45.46
2022-08-20T18:10:21.730Z,43.03
2022-08-20T18:13:32.604Z,42.06
2022-08-20T18:16:43.804Z,41.99
2022-08-20T18:20:16.860Z,42.49
2022-08-20T18:23:22.815Z,42.83
2022-08-20T18:26:28.376Z,42.41
2022-08-20T18:29:35.291Z,43.58
2022-08-20T18:32:39.632Z,42.21
2022-08-20T18:35:46.429Z,43.51
2022-08-20T18:39:01.359Z,41.97
2022-08-20T18:42:06.941Z,43.08
2022-08-20T18:45:14.241Z,43.12
2022-08-20T18:48:22.568Z,41.94
2022-08-20T18:51:29.360Z,43.35
2022-08-20T18:54:33.449Z,43.96
2022-08-20T18:57:41.324Z,45.56
2022-08-20T19:00:48.212Z,47.20
2022-08-20T19:03:56.087Z,46.38
2022-08-20T19:07:02.193Z,47.41
2022-08-20T19:10:27.632Z,47.82
2022-08-20T19:13:51.709Z,46.96
2022-08-20T19:17:00.503Z,46.45
2022-08-20T19:20:06.264Z,48.71
2022-08-20T19:23:15.768Z,47.41
2022-08-20T19:26:25.389Z,47.70
2022-08-20T19:29:31.009Z,48.74
2022-08-20T19:32:42.728Z,49.59
2022-08-20T19:35:51.591Z,49.74
2022-08-20T19:39:04.175Z,49.16
2022-08-20T19:42:14.920Z,48.52
2022-08-20T19:45:21.228Z,47.70
2022-08-20T19:48:42.647Z,47.43
2022-08-20T19:51:52.206Z,46.44
2022-08-20T19:55:02.982Z,47.85
2022-08-20T19:58:08.443Z,47.05
2022-08-20T20:01:12.144Z,47.93
2022-08-20T20:04:17.589Z,46.42
2022-08-20T20:07:22.921Z,47.73
2022-08-20T20:10:32.506Z,48.14
2022-08-20T20:13:37.761Z,47.29
2022-08-20T20:16:43.651Z,46.48
2022-08-20T20:19:47.384Z,47.36
2022-08-20T20:22:52.924Z,47.41
2022-08-20T20:25:58.796Z,47.37
2022-08-20T20:29:03.312Z,47.10
2022-08-20T20:32:14.336Z,46.85
2022-08-20T20:35:24.751Z,46.56
2022-08-20T20:38:29.530Z,46.44
2022-08-20T20:41:33.386Z,46.63
2022-08-20T20:44:37.737Z,46.76
2022-08-20T20:47:40.604Z,45.12
2022-08-20T20:50:46.548Z,44.77
2022-08-20T20:53:54.684Z,44.78
2022-08-20T20:56:59.635Z,43.55
2022-08-20T21:00:02.458Z,44.08
2022-08-20T21:03:05.569Z,44.05
2022-08-20T21:06:08.468Z,43.19
2022-08-20T21:09:13.354Z,44.12
2022-08-20T21:12:16.225Z,43.24
2022-08-20T21:15:19.118Z,43.60
2022-08-20T21:18:26.366Z,42.74
2022-08-20T21:21:29.516Z,41.54
2022-08-20T21:24:33.731Z,41.27
2022-08-20T21:27:37.199Z,42.28
2022-08-20T21:30:40.067Z,42.23
2022-08-20T21:33:43.006Z,41.47
2022-08-20T21:36:46.565Z,41.24
2022-08-20T21:39:50.826Z,40.42
2022-08-20T21:42:53.727Z,40.99
2022-08-20T21:45:56.704Z,41.66
2022-08-20T21:48:59.540Z,41.78
2022-08-20T21:52:05.966Z,41.17
2022-08-20T21:55:10.721Z,41.68
2022-08-20T21:58:13.649Z,42.16
2022-08-20T22:01:16.672Z,43.10
2022-08-20T22:04:19.524Z,43.19
2022-08-20T22:07:22.677Z,42.31
2022-08-20T22:10:26.870Z,42.45
2022-08-20T22:13:31.887Z,43.22
2022-08-20T22:16:34.895Z,43.77
2022-08-20T22:19:37.895Z,42.94
2022-08-20T22:22:40.693Z,45.08
2022-08-20T22:25:50.324Z,45.39
2022-08-20T22:28:53.213Z,46.15
2022-08-20T22:31:56.054Z,45.09
2022-08-20T22:34:59.110Z,45.59
2022-08-20T22:38:02.272Z,45.74
2022-08-20T22:41:09.697Z,46.04
2022-08-20T22:44:12.801Z,46.51
2022-08-20T22:47:15.877Z,45.02
2022-08-20T22:50:19.429Z,46.69
2022-08-20T22:53:23.140Z,45.83
2022-08-20T22:56:27.647Z,46.44
2022-08-20T22:59:33.279Z,46.62
2022-08-20T23:02:45.856Z,47.86
2022-08-20T23:05:49.173Z,47.01
2022-08-20T23:08:52.043Z,48.66
2022-08-20T23:11:56.404Z,47.04
2022-08-20T23:15:00.376Z,48.87
2022-08-20T23:18:06.348Z,48.65
2022-08-20T23:21:09.209Z,48.53
2022-08-20T23:24:14.368Z,48.37
2022-08-20T23:27:21.131Z,49.02
2022-08-20T23:30:24.491Z,47.75
2022-08-20T23:33:27.328Z,47.31
2022-08-20T23:36:30.183Z,48.78
2022-08-20T23:39:33.064Z,48.28
2022-08-20T23:42:37.311Z,55.76
2022-08-20T23:45:40.247Z,56.83
2022-08-20T23:48:43.156Z,52.42
2022-08-20T23:51:46.014Z,54.54
2022-08-20T23:54:48.987Z,53.34
2022-08-20T23:57:53.366Z,57.41
